Time;durP1;ratioP1;P1;durP2;ratioP2;P2;SDS_P1;SDS_P2;PMS_P1;PMS_P2;Temp;Humidity;BMP_temperature;BMP_pressure;BME280_temperature;BME280_humidity;BME280_pressure;Samples;Min_cycle;Max_cycle;Signal;HPM_P1;HPM_P2
2020/12/24 00:01:36;;;;;;;6.43;2.73;;;;;;;10.74;100.00;99257.53;5062534;28;20263;-31
2020/12/24 00:04:22;;;;;;;7.77;2.43;;;;;;;10.87;100.00;99261.47;5062118;28;20243;-31
2020/12/24 00:07:08;;;;;;;5.20;1.80;;;;;;;10.92;100.00;99260.47;5061056;28;20200;-31
2020/12/24 00:09:54;;;;;;;8.43;1.97;;;;;;;10.74;100.00;99258.38;5063286;28;20200;-31
2020/12/24 00:12:41;;;;;;;5.53;1.87;;;;;;;10.84;100.00;99256.38;5061029;28;20208;-31
2020/12/24 00:15:28;;;;;;;5.40;1.90;;;;;;;10.63;100.00;99256.03;5063092;28;20228;-31
2020/12/24 00:18:15;;;;;;;4.03;1.60;;;;;;;10.77;100.00;99247.94;5065674;28;20603;-31
2020/12/24 00:21:01;;;;;;;10.07;2.13;;;;;;;10.69;100.00;99244.69;5062388;28;20247;-31
2020/12/24 00:23:47;;;;;;;8.13;2.63;;;;;;;10.65;100.00;99241.34;5061406;28;20529;-31
2020/12/24 00:26:34;;;;;;;4.80;1.63;;;;;;;10.61;100.00;99231.09;5061042;28;20302;-31
2020/12/24 00:29:20;;;;;;;5.40;1.50;;;;;;;10.51;100.00;99229.66;5061792;28;20200;-30
2020/12/24 00:32:07;;;;;;;7.40;1.97;;;;;;;10.50;100.00;99226.22;5060441;28;20201;-31
2020/12/24 00:34:53;;;;;;;9.83;2.53;;;;;;;10.62;100.00;99219.88;5049874;28;20287;-31
2020/12/24 00:37:39;;;;;;;4.67;2.07;;;;;;;10.51;100.00;99214.13;5060888;28;20294;-31
2020/12/24 00:40:27;;;;;;;8.60;2.30;;;;;;;10.45;100.00;99209.97;5061114;28;20204;-31
2020/12/24 00:43:13;;;;;;;6.30;2.07;;;;;;;10.43;100.00;99216.06;5062906;28;20204;-31
2020/12/24 00:46:00;;;;;;;5.63;1.77;;;;;;;10.50;100.00;99215.03;5060100;28;20208;-30
2020/12/24 00:48:54;;;;;;;3.30;1.40;;;;;;;10.42;100.00;99209.19;5053974;28;20209;-31
2020/12/24 00:51:40;;;;;;;4.40;1.80;;;;;;;10.16;100.00;99215.84;5060823;28;20202;-31
2020/12/24 00:54:26;;;;;;;7.87;2.00;;;;;;;10.34;100.00;99205.06;5060982;28;20222;-31
2020/12/24 00:57:12;;;;;;;4.67;1.73;;;;;;;10.25;100.00;99213.03;5061180;28;20292;-30
2020/12/24 00:59:58;;;;;;;5.77;1.93;;;;;;;10.10;100.00;99209.94;5060867;28;20205;-30
2020/12/24 01:02:44;;;;;;;8.53;2.50;;;;;;;10.12;100.00;99206.44;5060361;28;20210;-30
2020/12/24 01:05:31;;;;;;;5.07;1.83;;;;;;;10.04;100.00;99208.34;5060523;28;20293;-31
2020/12/24 01:08:17;;;;;;;7.57;2.00;;;;;;;10.07;100.00;99197.09;5046843;28;20600;-31
2020/12/24 01:11:05;;;;;;;8.17;2.10;;;;;;;9.95;100.00;99187.91;5061128;28;20259;-31
2020/12/24 01:13:50;;;;;;;8.70;1.97;;;;;;;9.99;100.00;99192.94;5061395;28;20189;-30
2020/12/24 01:16:36;;;;;;;11.60;2.77;;;;;;;9.88;100.00;99191.50;5060638;28;20602;-31
2020/12/24 01:19:23;;;;;;;9.00;2.27;;;;;;;9.91;100.00;99194.03;5060332;28;20206;-30
2020/12/24 01:22:09;;;;;;;11.90;1.80;;;;;;;9.84;100.00;99192.47;5061287;28;20208;-30
2020/12/24 01:24:56;;;;;;;8.07;1.40;;;;;;;9.69;100.00;99188.50;5065674;28;20279;-31
2020/12/24 01:27:43;;;;;;;7.80;2.30;;;;;;;9.77;100.00;99206.44;5063088;28;20212;-30
2020/12/24 01:30:28;;;;;;;4.57;1.70;;;;;;;9.85;100.00;99204.50;5060695;28;20277;-30
2020/12/24 01:33:14;;;;;;;6.03;2.13;;;;;;;9.77;100.00;99204.69;5063544;28;20205;-31
2020/12/24 01:36:00;;;;;;;6.37;1.83;;;;;;;9.86;100.00;99217.38;5059510;28;20283;-30
2020/12/24 01:38:47;;;;;;;7.50;2.23;;;;;;;9.84;100.00;99210.56;5053899;28;20211;-30
2020/12/24 01:41:35;;;;;;;5.43;2.10;;;;;;;9.78;100.00;99211.56;5057265;28;20298;-30
2020/12/24 01:44:21;;;;;;;7.50;2.03;;;;;;;9.63;100.00;99197.22;5060689;28;20201;-30
2020/12/24 01:47:07;;;;;;;5.80;1.80;;;;;;;9.92;100.00;99212.09;5059994;28;20678;-30
2020/12/24 01:49:53;;;;;;;7.70;2.13;;;;;;;9.79;100.00;99212.41;5060078;28;20595;-31
2020/12/24 01:52:40;;;;;;;6.37;2.20;;;;;;;9.84;100.00;99211.41;5060239;28;20591;-30
2020/12/24 01:55:27;;;;;;;7.60;2.00;;;;;;;9.82;100.00;99212.31;5067173;28;20227;-30
2020/12/24 01:58:15;;;;;;;6.57;1.50;;;;;;;9.83;100.00;99219.19;5061321;28;20244;-30
2020/12/24 02:01:01;;;;;;;6.07;1.80;;;;;;;9.85;100.00;99218.25;5059634;28;20202;-30
2020/12/24 02:03:47;;;;;;;6.03;1.57;;;;;;;9.79;100.00;99215.81;5039420;28;20216;-30
2020/12/24 02:06:33;;;;;;;9.30;2.03;;;;;;;9.76;100.00;99218.50;5039899;28;20670;-30
2020/12/24 02:09:20;;;;;;;5.93;1.83;;;;;;;9.82;100.00;99220.06;5040072;28;20206;-30
2020/12/24 02:12:09;;;;;;;8.57;2.40;;;;;;;9.81;100.00;99211.47;5039848;28;20476;-30
2020/12/24 02:14:56;;;;;;;10.47;2.80;;;;;;;9.80;100.00;99209.75;5040464;28;20644;-30
2020/12/24 02:17:42;;;;;;;10.97;2.30;;;;;;;9.76;100.00;99213.31;5040237;28;20201;-30
2020/12/24 02:20:28;;;;;;;6.10;1.90;;;;;;;9.70;100.00;99218.63;5039577;28;20202;-30
2020/12/24 02:23:15;;;;;;;7.43;1.93;;;;;;;9.72;100.00;99213.41;5039753;28;20600;-30
2020/12/24 02:26:00;;;;;;;8.27;2.10;;;;;;;9.70;100.00;99213.44;5040361;28;20201;-30
2020/12/24 02:28:49;;;;;;;5.87;2.00;;;;;;;9.66;100.00;99209.22;5039583;28;20201;-30
2020/12/24 02:31:41;;;;;;;7.00;2.00;;;;;;;9.62;100.00;99202.44;5042017;28;20205;-31
2020/12/24 02:34:27;;;;;;;8.03;1.97;;;;;;;9.64;100.00;99206.69;5040174;28;20201;-31
2020/12/24 02:37:13;;;;;;;11.23;2.57;;;;;;;9.62;100.00;99208.44;5040879;28;20256;-31
2020/12/24 02:40:00;;;;;;;6.97;2.30;;;;;;;9.61;100.00;99208.47;5039194;28;20228;-31
2020/12/24 02:42:46;;;;;;;11.20;2.80;;;;;;;9.54;100.00;99217.25;5039519;28;20197;-30
2020/12/24 02:45:32;;;;;;;9.80;3.00;;;;;;;9.55;100.00;99201.75;5039106;28;20192;-30
2020/12/24 02:48:18;;;;;;;11.33;2.23;;;;;;;9.49;100.00;99198.44;5039095;28;20368;-30
2020/12/24 02:51:05;;;;;;;8.13;2.37;;;;;;;9.59;100.00;99200.75;5039651;28;20588;-30
2020/12/24 02:53:51;;;;;;;10.83;2.20;;;;;;;9.65;100.00;99202.38;5038837;28;20193;-30
2020/12/24 02:56:38;;;;;;;8.17;2.67;;;;;;;9.73;100.00;99199.63;5038760;28;20230;-30
2020/12/24 02:59:23;;;;;;;5.33;1.90;;;;;;;9.56;100.00;99194.84;5039405;28;20587;-30
2020/12/24 03:02:11;;;;;;;11.67;2.17;;;;;;;9.64;100.00;99193.78;5039786;28;20197;-30
2020/12/24 03:04:58;;;;;;;9.23;2.33;;;;;;;9.47;100.00;99192.44;5039671;28;20352;-31
2020/12/24 03:07:49;;;;;;;5.23;1.90;;;;;;;9.50;100.00;99185.50;5038875;28;20204;-30
2020/12/24 03:10:35;;;;;;;5.87;2.00;;;;;;;9.33;100.00;99178.13;5038338;28;20199;-30
2020/12/24 03:13:23;;;;;;;8.37;2.37;;;;;;;9.28;100.00;99177.34;5038999;28;20678;-30
2020/12/24 03:16:09;;;;;;;16.57;2.70;;;;;;;9.31;100.00;99179.03;5039225;28;20256;-30
2020/12/24 03:18:55;;;;;;;12.23;2.10;;;;;;;9.28;100.00;99171.34;5044511;28;20184;-30
2020/12/24 03:21:42;;;;;;;9.83;2.60;;;;;;;9.24;100.00;99180.88;5039337;28;20608;-30
2020/12/24 03:24:28;;;;;;;10.07;2.53;;;;;;;9.27;100.00;99178.25;5042487;28;20224;-30
2020/12/24 03:27:13;;;;;;;7.23;2.30;;;;;;;9.20;100.00;99176.66;5042949;28;20204;-30
2020/12/24 03:30:01;;;;;;;11.03;2.13;;;;;;;9.37;100.00;99173.75;5043398;28;20201;-30
2020/12/24 03:32:47;;;;;;;9.63;1.90;;;;;;;9.39;100.00;99168.56;5042976;28;20197;-30
2020/12/24 03:35:32;;;;;;;7.53;2.33;;;;;;;9.30;100.00;99167.84;5051935;28;20318;-30
2020/12/24 03:38:18;;;;;;;19.10;2.93;;;;;;;9.27;100.00;99157.59;5062452;28;20209;-30
2020/12/24 03:41:05;;;;;;;11.40;2.50;;;;;;;9.29;100.00;99157.56;5062098;28;20220;-30
2020/12/24 03:43:51;;;;;;;11.97;2.17;;;;;;;9.52;100.00;99164.81;5063353;28;20604;-30
2020/12/24 03:46:39;;;;;;;8.23;2.00;;;;;;;9.50;100.00;99154.50;5061876;28;20285;-30
2020/12/24 03:49:25;;;;;;;10.43;3.00;;;;;;;9.28;100.00;99151.56;5062957;28;20212;-31
2020/12/24 03:52:11;;;;;;;9.00;2.30;;;;;;;9.31;100.00;99146.31;5062268;28;20259;-30
2020/12/24 03:54:57;;;;;;;7.33;2.07;;;;;;;9.47;100.00;99151.16;5061600;28;20212;-31
2020/12/24 03:57:43;;;;;;;11.13;2.53;;;;;;;9.36;100.00;99147.97;5062028;28;20354;-31
2020/12/24 04:00:30;;;;;;;7.80;2.03;;;;;;;9.45;100.00;99145.16;5066016;28;20254;-30
2020/12/24 04:03:17;;;;;;;8.53;1.83;;;;;;;9.42;100.00;99145.22;5062876;28;20224;-30
2020/12/24 04:06:04;;;;;;;8.50;2.30;;;;;;;9.37;100.00;99152.25;5061722;28;20209;-31
2020/12/24 04:08:51;;;;;;;11.97;2.20;;;;;;;9.39;100.00;99145.31;5061996;28;20205;-30
2020/12/24 04:11:37;;;;;;;12.37;2.63;;;;;;;9.40;100.00;99150.41;5064602;28;20204;-31
2020/12/24 04:14:25;;;;;;;8.47;2.50;;;;;;;9.34;100.00;99145.41;5061562;28;20630;-31
2020/12/24 04:17:11;;;;;;;5.80;1.90;;;;;;;9.38;100.00;99153.94;5061585;28;20208;-30
2020/12/24 04:19:58;;;;;;;9.00;2.60;;;;;;;9.36;100.00;99155.72;5061222;28;20201;-31
2020/12/24 04:22:44;;;;;;;10.63;2.27;;;;;;;9.48;100.00;99155.44;5061424;28;20197;-31
2020/12/24 04:25:30;;;;;;;8.37;2.10;;;;;;;9.44;100.00;99149.47;5062417;28;20225;-30
2020/12/24 04:28:15;;;;;;;11.07;2.20;;;;;;;9.41;100.00;99165.03;5061196;28;20204;-30
2020/12/24 04:31:02;;;;;;;10.07;2.40;;;;;;;9.21;100.00;99147.38;5060771;28;20263;-30
2020/12/24 04:33:48;;;;;;;10.20;2.33;;;;;;;9.28;100.00;99151.56;5060625;28;20204;-30
2020/12/24 04:36:35;;;;;;;8.93;2.07;;;;;;;9.30;100.00;99154.94;5063697;28;20497;-31
2020/12/24 04:39:21;;;;;;;9.90;2.10;;;;;;;9.23;100.00;99155.94;5061923;28;20224;-31
2020/12/24 04:42:07;;;;;;;8.27;2.70;;;;;;;9.40;100.00;99158.16;5061813;28;20586;-31
2020/12/24 04:44:53;;;;;;;11.03;2.97;;;;;;;9.19;100.00;99148.34;5061272;28;20538;-30
2020/12/24 04:47:41;;;;;;;6.33;2.20;;;;;;;9.18;100.00;99144.06;5062270;28;20542;-31
2020/12/24 04:50:29;;;;;;;8.10;1.90;;;;;;;9.22;100.00;99143.09;5061928;28;20224;-30
2020/12/24 04:53:16;;;;;;;9.20;2.00;;;;;;;9.16;100.00;99148.41;5063375;28;20662;-31
2020/12/24 04:56:03;;;;;;;10.00;2.60;;;;;;;9.29;100.00;99161.00;5061707;28;20224;-31
2020/12/24 04:58:50;;;;;;;14.90;3.60;;;;;;;9.21;100.00;99152.56;5062153;28;20209;-30
2020/12/24 05:01:36;;;;;;;8.83;2.00;;;;;;;9.23;100.00;99157.69;5065994;28;20267;-31
2020/12/24 05:04:22;;;;;;;11.97;2.40;;;;;;;9.08;100.00;99164.03;5060892;28;20201;-31
2020/12/24 05:07:09;;;;;;;7.80;2.10;;;;;;;9.25;100.00;99155.91;5061097;28;20292;-30
2020/12/24 05:09:55;;;;;;;8.20;2.03;;;;;;;8.99;100.00;99166.81;5060605;28;20209;-30
2020/12/24 05:12:42;;;;;;;11.00;1.90;;;;;;;9.10;100.00;99164.00;5061251;28;20286;-30
2020/12/24 05:15:30;;;;;;;9.27;2.17;;;;;;;9.07;100.00;99164.91;5060741;28;20221;-30
2020/12/24 05:18:18;;;;;;;8.20;1.83;;;;;;;8.96;100.00;99166.84;5064204;28;20197;-31
2020/12/24 05:21:05;;;;;;;7.47;2.67;;;;;;;8.97;100.00;99160.81;5061753;28;20201;-31
2020/12/24 05:23:51;;;;;;;12.43;2.67;;;;;;;9.11;100.00;99171.69;5061756;28;20279;-30
2020/12/24 05:26:37;;;;;;;8.83;2.00;;;;;;;8.88;100.00;99168.72;5060683;28;20485;-31
2020/12/24 05:29:24;;;;;;;9.17;2.33;;;;;;;8.98;100.00;99172.84;5060138;28;20598;-31
2020/12/24 05:32:11;;;;;;;13.30;2.23;;;;;;;8.89;100.00;99176.44;5060318;28;20472;-31
2020/12/24 05:35:06;;;;;;;10.93;2.93;;;;;;;8.92;100.00;99175.53;5060051;28;20286;-31
2020/12/24 05:37:53;;;;;;;6.83;2.03;;;;;;;8.66;100.00;99180.31;5062758;28;20248;-30
2020/12/24 05:40:39;;;;;;;6.83;2.33;;;;;;;8.77;100.00;99183.56;5062597;28;20259;-31
2020/12/24 05:43:26;;;;;;;9.80;2.87;;;;;;;8.66;100.00;99188.06;5062425;28;20202;-31
2020/12/24 05:46:12;;;;;;;11.23;2.83;;;;;;;8.72;100.00;99187.97;5061962;28;20200;-31
2020/12/24 05:49:12;;;;;;;8.27;2.53;;;;;;;8.71;100.00;99196.56;5062856;28;20586;-32
2020/12/24 05:52:15;;;;;;;7.90;2.77;;;;;;;8.44;100.00;99185.88;5059503;28;20209;-32
2020/12/24 05:55:01;;;;;;;10.63;2.63;;;;;;;8.51;100.00;99195.22;5059825;28;20200;-32
2020/12/24 05:57:48;;;;;;;15.93;3.07;;;;;;;8.37;100.00;99176.56;5059407;28;20197;-32
2020/12/24 06:00:36;;;;;;;10.87;3.27;;;;;;;8.31;100.00;99181.78;5060203;28;20199;-32
2020/12/24 06:03:34;;;;;;;9.07;2.70;;;;;;;8.30;100.00;99190.38;5058890;28;20200;-32
2020/12/24 06:06:39;;;;;;;22.57;3.50;;;;;;;8.38;100.00;99188.56;5062271;28;20611;-32
2020/12/24 06:09:36;;;;;;;15.77;3.37;;;;;;;8.34;100.00;99191.22;5060084;28;20201;-32
2020/12/24 06:12:23;;;;;;;9.80;3.70;;;;;;;8.38;100.00;99191.16;5059561;28;20201;-32
2020/12/24 06:15:17;;;;;;;12.77;3.43;;;;;;;8.41;100.00;99198.81;5063524;28;20201;-32
2020/12/24 06:18:11;;;;;;;11.83;3.10;;;;;;;8.33;100.00;99203.25;5059303;28;20226;-31
2020/12/24 06:20:59;;;;;;;7.37;3.23;;;;;;;8.03;100.00;99211.44;5059314;28;20202;-32
2020/12/24 06:23:48;;;;;;;17.57;4.00;;;;;;;7.86;100.00;99246.00;5058918;28;20322;-31
2020/12/24 06:26:37;;;;;;;4.80;3.10;;;;;;;7.16;100.00;99256.38;5060532;28;20233;-32
2020/12/24 06:29:25;;;;;;;4.80;3.27;;;;;;;6.54;100.00;99256.16;5058645;28;20602;-32
2020/12/24 06:32:12;;;;;;;4.50;4.10;;;;;;;6.23;100.00;99277.78;5058518;28;20200;-31
2020/12/24 06:34:59;;;;;;;4.50;4.10;;;;;;;6.33;100.00;99268.31;5058896;28;20492;-32
2020/12/24 06:37:45;;;;;;;4.60;4.23;;;;;;;6.30;100.00;99284.59;5060646;28;20204;-32
2020/12/24 06:40:33;;;;;;;4.27;3.87;;;;;;;6.13;100.00;99278.72;5047038;28;20546;-31
2020/12/24 06:43:40;;;;;;;4.47;4.07;;;;;;;5.95;100.00;99304.53;5058744;28;20204;-31
2020/12/24 06:46:26;;;;;;;4.43;4.03;;;;;;;5.59;100.00;99301.25;5058634;28;20287;-31
2020/12/24 06:49:12;;;;;;;4.53;4.13;;;;;;;5.62;100.00;99311.47;5058326;28;20294;-32
2020/12/24 06:52:00;;;;;;;4.73;4.33;;;;;;;5.72;100.00;99315.72;5057913;28;20323;-32
2020/12/24 06:54:46;;;;;;;5.53;4.63;;;;;;;5.53;100.00;99320.09;5049813;28;20205;-32
2020/12/24 06:57:37;;;;;;;5.80;4.87;;;;;;;5.61;100.00;99332.84;5057885;28;20684;-31
2020/12/24 07:00:24;;;;;;;5.97;5.23;;;;;;;5.38;100.00;99344.94;5060993;28;20197;-31
2020/12/24 07:03:36;;;;;;;4.33;3.93;;;;;;;5.00;100.00;99352.66;5058205;28;20251;-31
2020/12/24 07:06:55;;;;;;;6.00;3.50;;;;;;;4.87;100.00;99353.53;5059836;28;20200;-31
2020/12/24 07:09:43;;;;;;;2.97;2.77;;;;;;;4.87;100.00;99362.09;5059357;28;20257;-31
2020/12/24 07:12:35;;;;;;;3.90;3.10;;;;;;;4.68;100.00;99373.19;5057142;28;20196;-31
2020/12/24 07:15:24;;;;;;;4.10;3.70;;;;;;;4.64;100.00;99374.03;5058519;28;20524;-31
2020/12/24 07:18:13;;;;;;;4.40;4.00;;;;;;;4.70;100.00;99376.59;5060236;28;20286;-31
2020/12/24 07:21:01;;;;;;;4.47;3.93;;;;;;;4.70;100.00;99389.41;5059598;28;20198;-31
2020/12/24 07:23:48;;;;;;;4.00;3.60;;;;;;;4.64;100.00;99389.41;5067828;28;20285;-32
2020/12/24 07:26:36;;;;;;;3.40;3.10;;;;;;;4.58;100.00;99394.53;5059831;28;20249;-31
2020/12/24 07:29:32;;;;;;;2.90;2.70;;;;;;;4.49;100.00;99397.94;5056963;28;20304;-32
2020/12/24 07:32:21;;;;;;;3.30;2.87;;;;;;;4.55;100.00;99409.91;5063637;28;20249;-32
2020/12/24 07:35:07;;;;;;;3.00;2.80;;;;;;;4.69;100.00;99415.88;5066480;28;20243;-32
2020/12/24 07:37:55;;;;;;;2.70;2.50;;;;;;;4.51;100.00;99419.28;5066078;28;20205;-31
2020/12/24 07:40:41;;;;;;;2.50;2.30;;;;;;;4.58;100.00;99415.03;5057473;28;20202;-32
2020/12/24 07:43:28;;;;;;;2.30;2.20;;;;;;;4.55;100.00;99428.69;5057918;28;20280;-31
2020/12/24 07:46:15;;;;;;;2.37;2.17;;;;;;;4.49;100.00;99428.66;5057897;28;20266;-32
2020/12/24 07:49:07;;;;;;;2.60;2.40;;;;;;;4.57;100.00;99437.22;5059030;28;20199;-32
2020/12/24 07:51:57;;;;;;;2.17;2.07;;;;;;;4.33;100.00;99442.28;5058366;28;20201;-31
2020/12/24 07:54:43;;;;;;;1.90;1.80;;;;;;;4.34;100.00;99444.00;5058376;28;20208;-31
2020/12/24 07:57:29;;;;;;;2.07;1.97;;;;;;;4.32;100.00;99451.66;5058163;28;20225;-31
2020/12/24 08:00:18;;;;;;;2.00;1.90;;;;;;;4.53;100.00;99453.44;5057901;28;20248;-31
2020/12/24 08:03:03;;;;;;;1.90;1.80;;;;;;;4.37;100.00;99452.53;5056932;28;20206;-31
2020/12/24 08:05:49;;;;;;;1.90;1.80;;;;;;;4.44;100.00;99459.38;5056812;28;20664;-32
2020/12/24 08:08:35;;;;;;;3.17;1.90;;;;;;;4.49;100.00;99459.38;5057746;28;20202;-32
2020/12/24 08:11:22;;;;;;;2.00;1.90;;;;;;;4.32;100.00;99458.50;5064007;28;20211;-32
2020/12/24 08:14:08;;;;;;;2.40;2.20;;;;;;;4.49;100.00;99470.47;5061321;28;20472;-31
2020/12/24 08:17:05;;;;;;;2.03;1.93;;;;;;;4.59;100.00;99473.09;5061059;28;20540;-31
2020/12/24 08:19:59;;;;;;;3.17;2.50;;;;;;;4.67;100.00;99481.63;5060931;28;20295;-32
2020/12/24 08:22:52;;;;;;;3.20;3.00;;;;;;;4.49;100.00;99478.16;5061074;28;20202;-32
2020/12/24 08:25:38;;;;;;;2.97;2.77;;;;;;;4.57;100.00;99478.19;5061083;28;20202;-31
2020/12/24 08:28:25;;;;;;;5.03;4.30;;;;;;;4.54;100.00;99480.75;5060603;28;20495;-32
2020/12/24 08:31:15;;;;;;;4.50;3.97;;;;;;;4.63;100.00;99485.03;5060697;28;20202;-32
2020/12/24 08:34:01;;;;;;;4.13;3.73;;;;;;;4.65;100.00;99485.88;5061952;28;20202;-32
2020/12/24 08:36:49;;;;;;;5.77;4.80;;;;;;;4.78;100.00;99491.06;5062539;28;20226;-32
2020/12/24 08:39:35;;;;;;;6.10;5.27;;;;;;;4.44;100.00;99500.34;5061697;28;20277;-32
2020/12/24 08:42:24;;;;;;;7.60;5.27;;;;;;;4.58;100.00;99496.97;5060646;28;20296;-31
2020/12/24 08:45:13;;;;;;;6.47;4.90;;;;;;;4.75;100.00;99511.53;5060170;28;20589;-32
2020/12/24 08:47:59;;;;;;;5.50;4.80;;;;;;;4.84;100.00;99505.56;5060448;28;20205;-32
2020/12/24 08:50:45;;;;;;;5.77;5.00;;;;;;;4.68;100.00;99504.69;5060486;28;20212;-32
2020/12/24 08:53:32;;;;;;;5.90;5.30;;;;;;;4.50;100.00;99509.75;5060239;28;20202;-32
2020/12/24 08:56:19;;;;;;;7.80;5.47;;;;;;;4.76;100.00;99512.41;5061515;28;20227;-32
2020/12/24 08:59:10;;;;;;;6.90;5.37;;;;;;;4.57;100.00;99519.19;5060772;28;20303;-32
2020/12/24 09:01:58;;;;;;;6.27;5.57;;;;;;;4.56;100.00;99527.72;5040436;28;20326;-32
2020/12/24 09:04:53;;;;;;;6.67;5.80;;;;;;;4.82;100.00;99527.75;5040499;28;20193;-32
2020/12/24 09:07:43;;;;;;;7.33;6.37;;;;;;;4.94;100.00;99526.94;5041087;28;20203;-32
2020/12/24 09:10:29;;;;;;;5.97;5.37;;;;;;;5.00;100.00;99532.91;5039219;28;20203;-32
2020/12/24 09:13:17;;;;;;;6.43;5.73;;;;;;;4.87;100.00;99538.88;5039598;28;20569;-32
2020/12/24 09:16:10;;;;;;;6.07;5.03;;;;;;;4.75;100.00;99556.78;5041197;28;20235;-32
2020/12/24 09:19:03;;;;;;;6.23;5.63;;;;;;;4.87;100.00;99553.41;5040247;28;20498;-32
2020/12/24 09:21:57;;;;;;;7.07;6.30;;;;;;;4.99;100.00;99553.44;5041599;28;20207;-32
2020/12/24 09:24:49;;;;;;;7.37;6.60;;;;;;;4.95;100.00;99561.97;5041410;28;20272;-32
2020/12/24 09:27:43;;;;;;;6.83;6.13;;;;;;;4.75;100.00;99562.78;5039759;28;20223;-31
2020/12/24 09:30:36;;;;;;;7.07;6.23;;;;;;;5.09;100.00;99566.28;5039868;28;20343;-32
2020/12/24 09:33:30;;;;;;;7.63;6.70;;;;;;;5.09;100.00;99588.47;5041934;28;20309;-32
2020/12/24 09:36:35;;;;;;;7.47;6.73;;;;;;;4.84;100.00;99585.00;5051236;28;20258;-31
2020/12/24 09:39:22;;;;;;;9.10;7.13;;;;;;;5.19;100.00;99593.66;5051123;28;20206;-32
2020/12/24 09:42:12;;;;;;;7.93;7.03;;;;;;;5.32;100.00;99603.91;5049921;28;20201;-32
2020/12/24 09:44:57;;;;;;;8.60;6.97;;;;;;;5.19;100.00;99608.16;5049186;28;20212;-32
2020/12/24 09:47:46;;;;;;;7.90;6.73;;;;;;;4.90;100.00;99608.06;5039464;28;20212;-32
2020/12/24 09:50:34;;;;;;;9.23;7.27;;;;;;;4.90;100.00;99627.72;5038073;28;20499;-32
2020/12/24 09:53:20;;;;;;;9.80;7.07;;;;;;;4.73;100.00;99632.78;5038631;28;20207;-31
2020/12/24 09:56:06;;;;;;;10.00;7.60;;;;;;;5.02;100.00;99641.41;5045063;28;20232;-31
2020/12/24 09:58:53;;;;;;;8.77;7.87;;;;;;;5.41;100.00;99643.22;5060307;28;20664;-31
2020/12/24 10:01:38;;;;;;;9.77;8.37;;;;;;;5.30;100.00;99656.91;5058675;28;20200;-32
2020/12/24 10:04:25;;;;;;;9.13;8.13;;;;;;;5.08;100.00;99658.53;5058953;28;20574;-32
2020/12/24 10:07:12;;;;;;;9.13;7.93;;;;;;;5.23;100.00;99661.13;5059241;28;20541;-31
2020/12/24 10:09:58;;;;;;;10.90;7.73;;;;;;;4.95;100.00;99680.72;5059851;28;20283;-32
2020/12/24 10:12:47;;;;;;;9.73;8.73;;;;;;;5.19;100.00;99675.69;5059326;28;20589;-31
2020/12/24 10:15:35;;;;;;;10.63;8.70;;;;;;;5.34;100.00;99674.88;5058220;28;20272;-32
2020/12/24 10:18:21;;;;;;;8.50;7.57;;;;;;;5.16;100.00;99665.41;5059810;28;20211;-31
2020/12/24 10:21:10;;;;;;;8.77;7.43;;;;;;;5.46;100.00;99674.88;5064961;28;20284;-31
2020/12/24 10:23:59;;;;;;;7.57;6.67;;;;;;;5.58;100.00;99683.47;5058800;28;20243;-32
2020/12/24 10:26:48;;;;;;;9.13;8.23;;;;;;;5.35;100.00;99680.84;5059176;28;20259;-31
2020/12/24 10:29:34;;;;;;;8.87;7.97;;;;;;;5.52;100.00;99687.72;5058956;28;20196;-31
2020/12/24 10:32:24;;;;;;;9.30;8.10;;;;;;;5.74;100.00;99680.94;5058927;28;20251;-31
2020/12/24 10:35:11;;;;;;;8.17;7.37;;;;;;;5.51;100.00;99687.72;5062487;28;20204;-31
2020/12/24 10:37:57;;;;;;;9.53;7.80;;;;;;;5.13;100.00;99685.06;5058656;28;20513;-31
2020/12/24 10:40:42;;;;;;;8.57;7.67;;;;;;;4.87;100.00;99686.63;5057827;28;20204;-31
2020/12/24 10:43:28;;;;;;;8.47;7.67;;;;;;;5.40;100.00;99679.13;5058803;28;20286;-31
2020/12/24 10:46:20;;;;;;;10.00;7.40;;;;;;;5.44;100.00;99681.72;5058663;28;20591;-30
2020/12/24 10:49:11;;;;;;;10.10;7.80;;;;;;;5.37;100.00;99682.56;5058412;28;20227;-31
2020/12/24 10:51:59;;;;;;;11.20;7.33;;;;;;;5.78;100.00;99676.66;5058299;28;20258;-31
2020/12/24 10:54:50;;;;;;;7.57;6.60;;;;;;;5.13;100.00;99679.94;5059394;28;20200;-30
2020/12/24 10:57:36;;;;;;;8.63;7.63;;;;;;;5.66;100.00;99690.31;5058743;28;20224;-30
2020/12/24 11:00:23;;;;;;;7.47;6.77;;;;;;;5.35;100.00;99696.25;5058925;28;20226;-30
2020/12/24 11:03:09;;;;;;;6.80;6.17;;;;;;;5.87;100.00;99695.47;5059029;28;20196;-30
2020/12/24 11:05:56;;;;;;;7.30;6.60;;;;;;;5.36;100.00;99703.06;5058671;28;20252;-30
2020/12/24 11:08:43;;;;;;;8.40;6.93;;;;;;;5.29;100.00;99694.50;5058295;28;20664;-31
2020/12/24 11:11:34;;;;;;;7.73;6.93;;;;;;;5.67;100.00;99694.59;5058762;28;20599;-30
2020/12/24 11:14:20;;;;;;;7.47;6.77;;;;;;;5.53;100.00;99697.13;5058989;28;20195;-30
2020/12/24 11:17:06;;;;;;;6.90;6.30;;;;;;;5.86;100.00;99698.91;5058698;28;20320;-30
2020/12/24 11:19:52;;;;;;;7.13;6.40;;;;;;;5.72;100.00;99704.88;5060127;28;20224;-30
2020/12/24 11:22:43;;;;;;;7.30;6.60;;;;;;;5.70;100.00;99710.00;5059347;28;20268;-30
2020/12/24 11:25:46;;;;;;;8.80;7.17;;;;;;;6.08;100.00;99701.50;5058063;28;20555;-30
2020/12/24 11:28:34;;;;;;;6.33;5.50;;;;;;;5.58;100.00;99707.41;5059294;28;20196;-30
2020/12/24 11:31:25;;;;;;;6.40;5.83;;;;;;;6.11;100.00;99706.66;5059073;28;20350;-30
2020/12/24 11:34:12;;;;;;;7.27;6.57;;;;;;;5.78;100.00;99707.47;5059543;28;20255;-30
2020/12/24 11:36:58;;;;;;;11.60;8.03;;;;;;;5.96;100.00;99701.50;5059456;28;20316;-30
2020/12/24 11:39:46;;;;;;;14.03;10.50;;;;;;;5.76;100.00;99702.31;5062231;28;20207;-31
2020/12/24 11:42:35;;;;;;;25.47;16.47;;;;;;;5.57;100.00;99705.69;5060576;28;20594;-31
2020/12/24 11:45:21;;;;;;;33.37;20.73;;;;;;;5.56;100.00;99711.69;5063011;28;20240;-30
2020/12/24 11:48:08;;;;;;;38.60;22.20;;;;;;;5.63;100.00;99708.25;5063204;28;20208;-31
2020/12/24 11:50:57;;;;;;;32.00;20.67;;;;;;;5.77;100.00;99713.44;5065271;28;20208;-30
2020/12/24 11:53:44;;;;;;;35.83;21.70;;;;;;;5.70;100.00;99719.41;5064938;28;20204;-31
2020/12/24 11:56:31;;;;;;;37.00;21.83;;;;;;;6.01;100.00;99715.19;5063983;28;20497;-30
2020/12/24 11:59:19;;;;;;;29.10;18.57;;;;;;;5.76;100.00;99722.00;5064601;28;20212;-30
2020/12/24 12:02:06;;;;;;;21.27;14.73;;;;;;;5.36;100.00;99721.88;5064145;28;20212;-30
2020/12/24 12:04:52;;;;;;;22.00;13.57;;;;;;;5.44;100.00;99727.88;5065266;28;20204;-30
2020/12/24 12:07:38;;;;;;;18.20;11.47;;;;;;;5.39;100.00;99716.78;5048049;28;20516;-31
2020/12/24 12:10:26;;;;;;;14.57;10.67;;;;;;;5.55;100.00;99722.78;5044118;28;20200;-31
2020/12/24 12:13:14;;;;;;;15.40;9.80;;;;;;;5.50;100.00;99722.78;5046107;28;20248;-31
2020/12/24 12:15:59;;;;;;;12.27;9.80;;;;;;;5.61;100.00;99725.34;5042367;28;20267;-31
2020/12/24 12:18:47;;;;;;;11.30;10.10;;;;;;;5.71;100.00;99719.41;5042516;28;20356;-30
2020/12/24 12:21:36;;;;;;;13.27;10.73;;;;;;;5.64;100.00;99721.94;5044478;28;20256;-31
2020/12/24 12:24:23;;;;;;;12.40;9.23;;;;;;;5.84;100.00;99730.53;5043593;28;20649;-29
2020/12/24 12:27:09;;;;;;;9.60;8.60;;;;;;;5.53;100.00;99734.75;5042670;28;20546;-31
2020/12/24 12:29:57;;;;;;;12.60;9.63;;;;;;;5.56;100.00;99737.34;5044819;28;20268;-30
2020/12/24 12:32:43;;;;;;;12.73;9.17;;;;;;;5.63;100.00;99743.31;5044090;28;20200;-30
2020/12/24 12:35:30;;;;;;;12.47;9.37;;;;;;;5.75;100.00;99754.50;5046754;28;20263;-30
2020/12/24 12:38:17;;;;;;;13.50;9.50;;;;;;;5.64;100.00;99747.59;5052746;28;20239;-31
2020/12/24 12:41:03;;;;;;;13.17;10.50;;;;;;;5.75;100.00;99738.25;5061622;28;20203;-29
2020/12/24 12:43:50;;;;;;;10.40;8.67;;;;;;;5.77;100.00;99739.09;5063410;28;20204;-30
2020/12/24 12:46:37;;;;;;;11.70;8.23;;;;;;;5.69;100.00;99745.91;5069693;28;20541;-30
2020/12/24 12:49:24;;;;;;;14.87;10.77;;;;;;;5.97;100.00;99746.88;5063751;28;20318;-30
2020/12/24 12:52:12;;;;;;;13.57;9.10;;;;;;;6.05;100.00;99753.72;5061172;28;20479;-30
2020/12/24 12:54:58;;;;;;;11.40;9.40;;;;;;;5.77;100.00;99751.94;5061581;28;20247;-30
2020/12/24 12:57:47;;;;;;;13.03;10.73;;;;;;;6.04;100.00;99754.56;5061292;28;20224;-30
2020/12/24 13:00:33;;;;;;;12.63;11.27;;;;;;;5.92;100.00;99751.13;5061181;28;20236;-30
2020/12/24 13:03:23;;;;;;;15.43;11.73;;;;;;;5.55;100.00;99740.75;5061600;28;20196;-30
2020/12/24 13:06:14;;;;;;;16.27;11.53;;;;;;;6.10;100.00;99740.88;5060740;28;20303;-30